sensor_id;sensor_type;location;lat;lon;timestamp;P1;durP1;ratioP1;P2;durP2;ratioP2
18526;SDS011;9393;42.158;24.748;2023-07-28T00:00:17;5.03;;;3.08;;
18526;SDS011;9393;42.158;24.748;2023-07-28T00:03:21;6.03;;;3.00;;
18526;SDS011;9393;42.158;24.748;2023-07-28T00:06:25;3.38;;;2.50;;
18526;SDS011;9393;42.158;24.748;2023-07-28T00:09:30;5.28;;;3.42;;
18526;SDS011;9393;42.158;24.748;2023-07-28T00:12:34;4.70;;;3.42;;
18526;SDS011;9393;42.158;24.748;2023-07-28T00:15:38;6.03;;;3.30;;
18526;SDS011;9393;42.158;24.748;2023-07-28T00:18:42;5.18;;;2.90;;
18526;SDS011;9393;42.158;24.748;2023-07-28T00:21:45;7.07;;;3.03;;
18526;SDS011;9393;42.158;24.748;2023-07-28T00:24:52;4.13;;;3.15;;
18526;SDS011;9393;42.158;24.748;2023-07-28T00:27:56;3.65;;;2.85;;
18526;SDS011;9393;42.158;24.748;2023-07-28T00:31:00;4.05;;;2.70;;
18526;SDS011;9393;42.158;24.748;2023-07-28T00:34:04;4.80;;;2.45;;
18526;SDS011;9393;42.158;24.748;2023-07-28T00:37:08;4.47;;;2.70;;
18526;SDS011;9393;42.158;24.748;2023-07-28T00:40:14;6.45;;;3.17;;
18526;SDS011;9393;42.158;24.748;2023-07-28T00:43:18;4.50;;;2.83;;
18526;SDS011;9393;42.158;24.748;2023-07-28T00:46:21;4.07;;;2.70;;
18526;SDS011;9393;42.158;24.748;2023-07-28T00:49:25;3.28;;;2.97;;
18526;SDS011;9393;42.158;24.748;2023-07-28T00:52:29;5.38;;;2.60;;
18526;SDS011;9393;42.158;24.748;2023-07-28T00:55:35;5.85;;;2.83;;
18526;SDS011;9393;42.158;24.748;2023-07-28T00:58:39;3.17;;;2.85;;
18526;SDS011;9393;42.158;24.748;2023-07-28T01:01:42;5.40;;;2.78;;
18526;SDS011;9393;42.158;24.748;2023-07-28T01:04:46;5.07;;;3.17;;
18526;SDS011;9393;42.158;24.748;2023-07-28T01:07:52;3.70;;;2.80;;
18526;SDS011;9393;42.158;24.748;2023-07-28T01:11:05;6.55;;;3.42;;
18526;SDS011;9393;42.158;24.748;2023-07-28T01:14:08;4.30;;;3.10;;
18526;SDS011;9393;42.158;24.748;2023-07-28T01:17:12;6.95;;;3.55;;
18526;SDS011;9393;42.158;24.748;2023-07-28T01:20:16;4.55;;;3.13;;
18526;SDS011;9393;42.158;24.748;2023-07-28T01:23:32;5.85;;;3.30;;
18526;SDS011;9393;42.158;24.748;2023-07-28T01:26:43;5.38;;;3.63;;
18526;SDS011;9393;42.158;24.748;2023-07-28T01:29:48;7.70;;;3.60;;
18526;SDS011;9393;42.158;24.748;2023-07-28T01:32:53;5.63;;;3.40;;
18526;SDS011;9393;42.158;24.748;2023-07-28T01:35:57;3.90;;;3.20;;
18526;SDS011;9393;42.158;24.748;2023-07-28T01:39:02;4.80;;;3.35;;
18526;SDS011;9393;42.158;24.748;2023-07-28T01:42:08;4.25;;;3.30;;
18526;SDS011;9393;42.158;24.748;2023-07-28T01:45:11;5.25;;;3.17;;
18526;SDS011;9393;42.158;24.748;2023-07-28T01:48:15;4.60;;;2.83;;
18526;SDS011;9393;42.158;24.748;2023-07-28T01:51:19;3.42;;;2.88;;
18526;SDS011;9393;42.158;24.748;2023-07-28T01:54:23;2.97;;;2.63;;
18526;SDS011;9393;42.158;24.748;2023-07-28T01:57:30;3.38;;;2.70;;
18526;SDS011;9393;42.158;24.748;2023-07-28T02:00:36;4.28;;;2.65;;
18526;SDS011;9393;42.158;24.748;2023-07-28T02:03:39;4.10;;;2.80;;
18526;SDS011;9393;42.158;24.748;2023-07-28T02:06:43;3.00;;;2.42;;
18526;SDS011;9393;42.158;24.748;2023-07-28T02:09:47;3.67;;;2.63;;
18526;SDS011;9393;42.158;24.748;2023-07-28T02:12:52;3.03;;;2.72;;
18526;SDS011;9393;42.158;24.748;2023-07-28T02:15:56;3.13;;;2.70;;
18526;SDS011;9393;42.158;24.748;2023-07-28T02:19:00;5.28;;;2.60;;
18526;SDS011;9393;42.158;24.748;2023-07-28T02:22:03;3.67;;;2.90;;
18526;SDS011;9393;42.158;24.748;2023-07-28T02:25:09;3.25;;;2.67;;
18526;SDS011;9393;42.158;24.748;2023-07-28T02:28:15;4.70;;;2.60;;
18526;SDS011;9393;42.158;24.748;2023-07-28T02:31:18;4.80;;;3.10;;
18526;SDS011;9393;42.158;24.748;2023-07-28T02:34:22;8.45;;;3.45;;
18526;SDS011;9393;42.158;24.748;2023-07-28T02:37:26;5.25;;;2.80;;
18526;SDS011;9393;42.158;24.748;2023-07-28T02:40:30;3.75;;;2.67;;
18526;SDS011;9393;42.158;24.748;2023-07-28T02:43:36;4.75;;;2.90;;
18526;SDS011;9393;42.158;24.748;2023-07-28T02:46:40;3.83;;;2.85;;
18526;SDS011;9393;42.158;24.748;2023-07-28T02:49:44;4.47;;;2.75;;
18526;SDS011;9393;42.158;24.748;2023-07-28T02:52:48;3.50;;;2.85;;
18526;SDS011;9393;42.158;24.748;2023-07-28T02:55:51;5.00;;;3.03;;
18526;SDS011;9393;42.158;24.748;2023-07-28T02:58:57;4.60;;;2.88;;
18526;SDS011;9393;42.158;24.748;2023-07-28T03:02:01;4.00;;;3.40;;
18526;SDS011;9393;42.158;24.748;2023-07-28T03:05:05;7.13;;;3.30;;
18526;SDS011;9393;42.158;24.748;2023-07-28T03:08:47;9.07;;;3.58;;
18526;SDS011;9393;42.158;24.748;2023-07-28T03:12:08;6.73;;;3.33;;
18526;SDS011;9393;42.158;24.748;2023-07-28T03:15:14;5.55;;;3.10;;
18526;SDS011;9393;42.158;24.748;2023-07-28T03:18:18;6.45;;;3.38;;
18526;SDS011;9393;42.158;24.748;2023-07-28T03:21:22;3.35;;;2.80;;
18526;SDS011;9393;42.158;24.748;2023-07-28T03:24:26;4.78;;;2.88;;
18526;SDS011;9393;42.158;24.748;2023-07-28T03:27:30;3.67;;;2.90;;
18526;SDS011;9393;42.158;24.748;2023-07-28T03:30:35;5.82;;;3.08;;
18526;SDS011;9393;42.158;24.748;2023-07-28T03:33:39;5.25;;;3.10;;
18526;SDS011;9393;42.158;24.748;2023-07-28T03:36:43;4.93;;;3.30;;
18526;SDS011;9393;42.158;24.748;2023-07-28T03:39:49;4.95;;;3.17;;
18526;SDS011;9393;42.158;24.748;2023-07-28T03:42:56;4.80;;;3.03;;
18526;SDS011;9393;42.158;24.748;2023-07-28T03:46:02;7.07;;;3.08;;
18526;SDS011;9393;42.158;24.748;2023-07-28T03:49:06;7.18;;;3.30;;
18526;SDS011;9393;42.158;24.748;2023-07-28T03:52:10;5.47;;;3.22;;
18526;SDS011;9393;42.158;24.748;2023-07-28T03:55:14;7.07;;;3.70;;
18526;SDS011;9393;42.158;24.748;2023-07-28T03:58:17;7.70;;;3.78;;
18526;SDS011;9393;42.158;24.748;2023-07-28T04:01:22;15.05;;;5.53;;
18526;SDS011;9393;42.158;24.748;2023-07-28T04:04:26;9.25;;;5.30;;
18526;SDS011;9393;42.158;24.748;2023-07-28T04:07:30;9.52;;;5.50;;
18526;SDS011;9393;42.158;24.748;2023-07-28T04:10:34;9.57;;;5.65;;
18526;SDS011;9393;42.158;24.748;2023-07-28T04:13:38;10.10;;;5.50;;
18526;SDS011;9393;42.158;24.748;2023-07-28T04:16:43;11.93;;;5.20;;
18526;SDS011;9393;42.158;24.748;2023-07-28T04:19:47;14.05;;;5.57;;
18526;SDS011;9393;42.158;24.748;2023-07-28T04:22:51;10.13;;;4.82;;
18526;SDS011;9393;42.158;24.748;2023-07-28T04:25:55;9.98;;;5.80;;
18526;SDS011;9393;42.158;24.748;2023-07-28T04:28:59;13.25;;;6.03;;
18526;SDS011;9393;42.158;24.748;2023-07-28T04:32:06;7.57;;;5.85;;
18526;SDS011;9393;42.158;24.748;2023-07-28T04:35:10;11.27;;;5.32;;
18526;SDS011;9393;42.158;24.748;2023-07-28T04:38:32;11.57;;;5.18;;
18526;SDS011;9393;42.158;24.748;2023-07-28T04:41:36;9.77;;;5.20;;
18526;SDS011;9393;42.158;24.748;2023-07-28T04:44:41;16.38;;;5.30;;
18526;SDS011;9393;42.158;24.748;2023-07-28T04:47:48;7.88;;;4.88;;
18526;SDS011;9393;42.158;24.748;2023-07-28T04:50:52;8.98;;;4.18;;
18526;SDS011;9393;42.158;24.748;2023-07-28T04:54:15;9.88;;;4.85;;
18526;SDS011;9393;42.158;24.748;2023-07-28T04:57:19;9.48;;;4.88;;
18526;SDS011;9393;42.158;24.748;2023-07-28T05:00:23;6.22;;;4.00;;
18526;SDS011;9393;42.158;24.748;2023-07-28T05:03:28;6.15;;;4.10;;
18526;SDS011;9393;42.158;24.748;2023-07-28T05:06:42;8.82;;;3.60;;
18526;SDS011;9393;42.158;24.748;2023-07-28T05:09:45;12.20;;;4.35;;
18526;SDS011;9393;42.158;24.748;2023-07-28T05:12:51;7.95;;;4.30;;
18526;SDS011;9393;42.158;24.748;2023-07-28T05:15:55;11.57;;;4.22;;
18526;SDS011;9393;42.158;24.748;2023-07-28T05:19:20;7.13;;;4.68;;
18526;SDS011;9393;42.158;24.748;2023-07-28T05:22:27;13.45;;;4.50;;
18526;SDS011;9393;42.158;24.748;2023-07-28T05:25:31;5.43;;;4.10;;
18526;SDS011;9393;42.158;24.748;2023-07-28T05:28:35;11.00;;;4.07;;
18526;SDS011;9393;42.158;24.748;2023-07-28T05:31:39;5.70;;;3.50;;
18526;SDS011;9393;42.158;24.748;2023-07-28T05:34:55;9.15;;;3.60;;
18526;SDS011;9393;42.158;24.748;2023-07-28T05:37:59;4.93;;;3.20;;
18526;SDS011;9393;42.158;24.748;2023-07-28T05:41:03;9.43;;;3.38;;
18526;SDS011;9393;42.158;24.748;2023-07-28T05:44:07;4.65;;;2.80;;
18526;SDS011;9393;42.158;24.748;2023-07-28T05:47:11;4.80;;;2.70;;
18526;SDS011;9393;42.158;24.748;2023-07-28T05:50:17;5.22;;;2.85;;
18526;SDS011;9393;42.158;24.748;2023-07-28T05:53:21;6.90;;;3.22;;
18526;SDS011;9393;42.158;24.748;2023-07-28T05:56:29;5.65;;;3.20;;
18526;SDS011;9393;42.158;24.748;2023-07-28T05:59:34;7.60;;;3.35;;
18526;SDS011;9393;42.158;24.748;2023-07-28T06:02:37;4.90;;;3.53;;
18526;SDS011;9393;42.158;24.748;2023-07-28T06:05:47;6.20;;;2.95;;
18526;SDS011;9393;42.158;24.748;2023-07-28T06:08:51;7.05;;;3.10;;
18526;SDS011;9393;42.158;24.748;2023-07-28T06:11:56;6.70;;;3.25;;
18526;SDS011;9393;42.158;24.748;2023-07-28T06:15:01;6.00;;;3.30;;
18526;SDS011;9393;42.158;24.748;2023-07-28T06:18:06;7.20;;;3.25;;
18526;SDS011;9393;42.158;24.748;2023-07-28T06:21:11;8.30;;;2.90;;
18526;SDS011;9393;42.158;24.748;2023-07-28T06:24:15;6.15;;;2.58;;
18526;SDS011;9393;42.158;24.748;2023-07-28T06:27:19;4.65;;;2.78;;
18526;SDS011;9393;42.158;24.748;2023-07-28T06:30:23;4.38;;;2.90;;
18526;SDS011;9393;42.158;24.748;2023-07-28T06:33:28;7.07;;;2.78;;
18526;SDS011;9393;42.158;24.748;2023-07-28T06:36:34;5.40;;;2.35;;
18526;SDS011;9393;42.158;24.748;2023-07-28T06:39:38;7.25;;;2.67;;
18526;SDS011;9393;42.158;24.748;2023-07-28T06:42:42;5.22;;;2.78;;
18526;SDS011;9393;42.158;24.748;2023-07-28T06:45:50;7.20;;;2.97;;
18526;SDS011;9393;42.158;24.748;2023-07-28T06:48:54;5.70;;;3.10;;
18526;SDS011;9393;42.158;24.748;2023-07-28T06:52:00;6.78;;;3.30;;
18526;SDS011;9393;42.158;24.748;2023-07-28T06:55:04;6.30;;;3.33;;
18526;SDS011;9393;42.158;24.748;2023-07-28T06:58:09;5.63;;;3.10;;
18526;SDS011;9393;42.158;24.748;2023-07-28T07:01:14;5.18;;;2.58;;
18526;SDS011;9393;42.158;24.748;2023-07-28T07:04:19;2.72;;;2.03;;
18526;SDS011;9393;42.158;24.748;2023-07-28T07:07:24;5.28;;;2.15;;
18526;SDS011;9393;42.158;24.748;2023-07-28T07:10:31;2.50;;;1.90;;
18526;SDS011;9393;42.158;24.748;2023-07-28T07:13:35;2.35;;;1.90;;
18526;SDS011;9393;42.158;24.748;2023-07-28T07:16:39;4.80;;;2.30;;
18526;SDS011;9393;42.158;24.748;2023-07-28T07:19:43;2.67;;;1.77;;
18526;SDS011;9393;42.158;24.748;2023-07-28T07:22:48;3.35;;;2.15;;
18526;SDS011;9393;42.158;24.748;2023-07-28T07:25:52;2.45;;;1.85;;
18526;SDS011;9393;42.158;24.748;2023-07-28T07:28:56;11.23;;;2.60;;
18526;SDS011;9393;42.158;24.748;2023-07-28T07:32:00;59.03;;;7.78;;
18526;SDS011;9393;42.158;24.748;2023-07-28T07:35:05;12.57;;;2.53;;
18526;SDS011;9393;42.158;24.748;2023-07-28T07:38:12;3.13;;;1.80;;
18526;SDS011;9393;42.158;24.748;2023-07-28T07:41:15;4.53;;;2.10;;
18526;SDS011;9393;42.158;24.748;2023-07-28T07:44:22;13.63;;;3.10;;
18526;SDS011;9393;42.158;24.748;2023-07-28T07:47:25;3.65;;;1.90;;
18526;SDS011;9393;42.158;24.748;2023-07-28T07:50:29;5.07;;;1.90;;
18526;SDS011;9393;42.158;24.748;2023-07-28T07:53:35;7.07;;;2.13;;
18526;SDS011;9393;42.158;24.748;2023-07-28T07:56:39;2.83;;;2.00;;
18526;SDS011;9393;42.158;24.748;2023-07-28T07:59:43;5.30;;;2.40;;
18526;SDS011;9393;42.158;24.748;2023-07-28T08:02:47;10.60;;;2.30;;
18526;SDS011;9393;42.158;24.748;2023-07-28T08:05:51;24.80;;;4.22;;
18526;SDS011;9393;42.158;24.748;2023-07-28T08:08:57;16.17;;;2.80;;
18526;SDS011;9393;42.158;24.748;2023-07-28T08:12:01;5.40;;;1.90;;
18526;SDS011;9393;42.158;24.748;2023-07-28T08:15:06;32.92;;;5.05;;
18526;SDS011;9393;42.158;24.748;2023-07-28T08:18:10;4.75;;;1.90;;
18526;SDS011;9393;42.158;24.748;2023-07-28T08:21:15;5.40;;;1.88;;
18526;SDS011;9393;42.158;24.748;2023-07-28T08:24:21;2.90;;;1.70;;
18526;SDS011;9393;42.158;24.748;2023-07-28T08:27:25;5.10;;;2.13;;
18526;SDS011;9393;42.158;24.748;2023-07-28T08:30:29;6.00;;;1.65;;
18526;SDS011;9393;42.158;24.748;2023-07-28T08:33:34;3.13;;;2.00;;
18526;SDS011;9393;42.158;24.748;2023-07-28T08:36:38;2.25;;;1.90;;
18526;SDS011;9393;42.158;24.748;2023-07-28T08:39:43;9.50;;;2.55;;
18526;SDS011;9393;42.158;24.748;2023-07-28T08:42:47;26.48;;;5.43;;
18526;SDS011;9393;42.158;24.748;2023-07-28T08:45:51;4.65;;;2.00;;
18526;SDS011;9393;42.158;24.748;2023-07-28T08:48:57;5.03;;;1.73;;
18526;SDS011;9393;42.158;24.748;2023-07-28T08:52:01;28.60;;;5.68;;
18526;SDS011;9393;42.158;24.748;2023-07-28T08:55:08;6.68;;;2.22;;
18526;SDS011;9393;42.158;24.748;2023-07-28T08:58:16;5.82;;;1.80;;
18526;SDS011;9393;42.158;24.748;2023-07-28T09:01:22;5.13;;;1.90;;
18526;SDS011;9393;42.158;24.748;2023-07-28T09:04:26;2.03;;;1.50;;
18526;SDS011;9393;42.158;24.748;2023-07-28T09:07:33;2.75;;;1.60;;
18526;SDS011;9393;42.158;24.748;2023-07-28T09:10:43;5.63;;;1.80;;
18526;SDS011;9393;42.158;24.748;2023-07-28T09:13:48;2.70;;;1.83;;
18526;SDS011;9393;42.158;24.748;2023-07-28T09:16:54;2.95;;;1.70;;
18526;SDS011;9393;42.158;24.748;2023-07-28T09:19:58;1.92;;;1.70;;
18526;SDS011;9393;42.158;24.748;2023-07-28T09:23:05;3.33;;;1.80;;
18526;SDS011;9393;42.158;24.748;2023-07-28T09:26:11;4.60;;;1.58;;
18526;SDS011;9393;42.158;24.748;2023-07-28T09:29:16;1.80;;;1.60;;
18526;SDS011;9393;42.158;24.748;2023-07-28T09:32:30;2.28;;;1.70;;
18526;SDS011;9393;42.158;24.748;2023-07-28T09:35:41;2.63;;;2.13;;
18526;SDS011;9393;42.158;24.748;2023-07-28T09:38:52;2.90;;;1.65;;
18526;SDS011;9393;42.158;24.748;2023-07-28T09:41:58;2.42;;;2.08;;
18526;SDS011;9393;42.158;24.748;2023-07-28T09:45:05;2.55;;;1.98;;
18526;SDS011;9393;42.158;24.748;2023-07-28T09:48:27;1.92;;;1.67;;
18526;SDS011;9393;42.158;24.748;2023-07-28T09:51:34;3.25;;;2.15;;
18526;SDS011;9393;42.158;24.748;2023-07-28T09:54:41;3.33;;;1.90;;
18526;SDS011;9393;42.158;24.748;2023-07-28T09:57:54;4.85;;;1.70;;
18526;SDS011;9393;42.158;24.748;2023-07-28T10:01:01;2.25;;;1.80;;
18526;SDS011;9393;42.158;24.748;2023-07-28T10:04:07;4.03;;;1.58;;
18526;SDS011;9393;42.158;24.748;2023-07-28T10:07:11;3.60;;;1.42;;
18526;SDS011;9393;42.158;24.748;2023-07-28T10:10:16;3.17;;;1.70;;
18526;SDS011;9393;42.158;24.748;2023-07-28T10:13:22;2.90;;;1.75;;
18526;SDS011;9393;42.158;24.748;2023-07-28T10:16:29;4.55;;;2.08;;
18526;SDS011;9393;42.158;24.748;2023-07-28T10:19:34;2.75;;;1.45;;
18526;SDS011;9393;42.158;24.748;2023-07-28T10:22:42;2.22;;;1.60;;
18526;SDS011;9393;42.158;24.748;2023-07-28T10:25:55;5.07;;;1.77;;
18526;SDS011;9393;42.158;24.748;2023-07-28T10:29:09;3.88;;;1.88;;
18526;SDS011;9393;42.158;24.748;2023-07-28T10:32:18;2.25;;;1.42;;
18526;SDS011;9393;42.158;24.748;2023-07-28T10:35:30;3.65;;;1.88;;
18526;SDS011;9393;42.158;24.748;2023-07-28T10:38:36;5.53;;;1.67;;
18526;SDS011;9393;42.158;24.748;2023-07-28T10:41:40;3.05;;;1.63;;
18526;SDS011;9393;42.158;24.748;2023-07-28T10:45:05;5.32;;;1.60;;
18526;SDS011;9393;42.158;24.748;2023-07-28T10:48:11;4.05;;;1.85;;
18526;SDS011;9393;42.158;24.748;2023-07-28T10:51:20;7.43;;;2.20;;
18526;SDS011;9393;42.158;24.748;2023-07-28T10:54:27;14.90;;;3.15;;
18526;SDS011;9393;42.158;24.748;2023-07-28T10:57:32;2.35;;;1.67;;
18526;SDS011;9393;42.158;24.748;2023-07-28T11:00:37;3.22;;;2.00;;
18526;SDS011;9393;42.158;24.748;2023-07-28T11:03:42;3.08;;;1.90;;
18526;SDS011;9393;42.158;24.748;2023-07-28T11:06:49;3.58;;;1.50;;
18526;SDS011;9393;42.158;24.748;2023-07-28T11:09:53;3.15;;;1.80;;
18526;SDS011;9393;42.158;24.748;2023-07-28T11:12:59;2.03;;;1.70;;
18526;SDS011;9393;42.158;24.748;2023-07-28T11:16:22;3.17;;;1.98;;
18526;SDS011;9393;42.158;24.748;2023-07-28T11:19:26;4.22;;;1.80;;
18526;SDS011;9393;42.158;24.748;2023-07-28T11:22:30;3.83;;;1.85;;
18526;SDS011;9393;42.158;24.748;2023-07-28T11:25:35;4.25;;;1.70;;
18526;SDS011;9393;42.158;24.748;2023-07-28T11:28:39;2.50;;;1.65;;
18526;SDS011;9393;42.158;24.748;2023-07-28T11:31:45;3.60;;;2.00;;
18526;SDS011;9393;42.158;24.748;2023-07-28T11:34:49;3.30;;;1.98;;
18526;SDS011;9393;42.158;24.748;2023-07-28T11:37:53;3.03;;;2.00;;
18526;SDS011;9393;42.158;24.748;2023-07-28T11:41:01;1.55;;;1.45;;
18526;SDS011;9393;42.158;24.748;2023-07-28T11:44:06;4.55;;;1.65;;
18526;SDS011;9393;42.158;24.748;2023-07-28T11:47:12;2.72;;;1.92;;
18526;SDS011;9393;42.158;24.748;2023-07-28T11:50:23;2.83;;;1.50;;
18526;SDS011;9393;42.158;24.748;2023-07-28T11:53:28;3.47;;;2.00;;
18526;SDS011;9393;42.158;24.748;2023-07-28T11:56:37;3.53;;;1.90;;
18526;SDS011;9393;42.158;24.748;2023-07-28T11:59:41;2.85;;;2.05;;
18526;SDS011;9393;42.158;24.748;2023-07-28T12:02:46;2.72;;;2.00;;
18526;SDS011;9393;42.158;24.748;2023-07-28T12:06:03;3.47;;;1.95;;
18526;SDS011;9393;42.158;24.748;2023-07-28T12:09:14;1.95;;;1.75;;
18526;SDS011;9393;42.158;24.748;2023-07-28T12:12:19;3.22;;;1.90;;
18526;SDS011;9393;42.158;24.748;2023-07-28T12:15:27;2.10;;;1.85;;
18526;SDS011;9393;42.158;24.748;2023-07-28T12:18:37;4.97;;;1.80;;
18526;SDS011;9393;42.158;24.748;2023-07-28T12:21:44;3.47;;;1.80;;
18526;SDS011;9393;42.158;24.748;2023-07-28T12:24:48;1.88;;;1.67;;
18526;SDS011;9393;42.158;24.748;2023-07-28T12:27:52;2.92;;;1.90;;
18526;SDS011;9393;42.158;24.748;2023-07-28T12:30:56;1.63;;;1.52;;
18526;SDS011;9393;42.158;24.748;2023-07-28T12:34:02;5.53;;;1.90;;
18526;SDS011;9393;42.158;24.748;2023-07-28T12:37:07;4.03;;;1.80;;
18526;SDS011;9393;42.158;24.748;2023-07-28T12:40:12;2.25;;;1.70;;
18526;SDS011;9393;42.158;24.748;2023-07-28T12:43:19;4.22;;;1.73;;
18526;SDS011;9393;42.158;24.748;2023-07-28T12:46:26;2.67;;;1.90;;
18526;SDS011;9393;42.158;24.748;2023-07-28T12:49:32;2.85;;;2.03;;
18526;SDS011;9393;42.158;24.748;2023-07-28T12:52:37;2.55;;;1.90;;
18526;SDS011;9393;42.158;24.748;2023-07-28T12:55:43;2.35;;;1.55;;
18526;SDS011;9393;42.158;24.748;2023-07-28T12:58:50;3.97;;;1.83;;
18526;SDS011;9393;42.158;24.748;2023-07-28T13:01:57;2.95;;;1.65;;
18526;SDS011;9393;42.158;24.748;2023-07-28T13:05:03;3.47;;;1.88;;
18526;SDS011;9393;42.158;24.748;2023-07-28T13:08:08;4.03;;;1.63;;
18526;SDS011;9393;42.158;24.748;2023-07-28T13:11:12;2.83;;;2.00;;
18526;SDS011;9393;42.158;24.748;2023-07-28T13:14:18;2.80;;;1.83;;
18526;SDS011;9393;42.158;24.748;2023-07-28T13:17:22;2.00;;;1.80;;
18526;SDS011;9393;42.158;24.748;2023-07-28T13:20:28;3.30;;;1.95;;
18526;SDS011;9393;42.158;24.748;2023-07-28T13:23:32;4.40;;;1.80;;
18526;SDS011;9393;42.158;24.748;2023-07-28T13:26:36;1.67;;;1.52;;
18526;SDS011;9393;42.158;24.748;2023-07-28T13:29:40;3.08;;;2.00;;
18526;SDS011;9393;42.158;24.748;2023-07-28T13:32:44;2.35;;;1.85;;
18526;SDS011;9393;42.158;24.748;2023-07-28T13:35:49;2.55;;;1.90;;
18526;SDS011;9393;42.158;24.748;2023-07-28T13:38:53;3.08;;;1.80;;
18526;SDS011;9393;42.158;24.748;2023-07-28T13:41:57;2.38;;;1.88;;
18526;SDS011;9393;42.158;24.748;2023-07-28T13:45:01;2.35;;;2.03;;
18526;SDS011;9393;42.158;24.748;2023-07-28T13:48:05;2.45;;;1.75;;
18526;SDS011;9393;42.158;24.748;2023-07-28T13:51:27;3.88;;;2.00;;
18526;SDS011;9393;42.158;24.748;2023-07-28T13:54:51;4.10;;;1.90;;
18526;SDS011;9393;42.158;24.748;2023-07-28T13:57:57;2.53;;;2.03;;
18526;SDS011;9393;42.158;24.748;2023-07-28T14:01:01;3.22;;;2.00;;
18526;SDS011;9393;42.158;24.748;2023-07-28T14:04:05;4.20;;;2.00;;
18526;SDS011;9393;42.158;24.748;2023-07-28T14:07:11;2.13;;;1.92;;
18526;SDS011;9393;42.158;24.748;2023-07-28T14:10:15;2.17;;;1.98;;
18526;SDS011;9393;42.158;24.748;2023-07-28T14:13:19;3.05;;;1.80;;
18526;SDS011;9393;42.158;24.748;2023-07-28T14:16:23;6.80;;;1.95;;
18526;SDS011;9393;42.158;24.748;2023-07-28T14:19:28;5.13;;;2.05;;
18526;SDS011;9393;42.158;24.748;2023-07-28T14:22:33;4.90;;;2.47;;
18526;SDS011;9393;42.158;24.748;2023-07-28T14:25:38;4.10;;;2.03;;
18526;SDS011;9393;42.158;24.748;2023-07-28T14:28:42;2.67;;;1.88;;
18526;SDS011;9393;42.158;24.748;2023-07-28T14:31:46;4.03;;;2.00;;
18526;SDS011;9393;42.158;24.748;2023-07-28T14:34:50;4.30;;;1.90;;
18526;SDS011;9393;42.158;24.748;2023-07-28T14:37:55;4.15;;;2.30;;
18526;SDS011;9393;42.158;24.748;2023-07-28T14:40:59;2.38;;;1.92;;
18526;SDS011;9393;42.158;24.748;2023-07-28T14:44:03;3.67;;;2.15;;
18526;SDS011;9393;42.158;24.748;2023-07-28T14:47:07;2.67;;;2.00;;
18526;SDS011;9393;42.158;24.748;2023-07-28T14:50:12;1.90;;;1.77;;
18526;SDS011;9393;42.158;24.748;2023-07-28T14:53:30;4.40;;;2.00;;
18526;SDS011;9393;42.158;24.748;2023-07-28T14:56:35;4.78;;;2.33;;
18526;SDS011;9393;42.158;24.748;2023-07-28T14:59:39;3.83;;;2.17;;
18526;SDS011;9393;42.158;24.748;2023-07-28T15:02:43;6.82;;;2.60;;
18526;SDS011;9393;42.158;24.748;2023-07-28T15:05:47;3.80;;;2.13;;
18526;SDS011;9393;42.158;24.748;2023-07-28T15:08:52;2.75;;;1.90;;
18526;SDS011;9393;42.158;24.748;2023-07-28T15:11:56;4.32;;;2.13;;
18526;SDS011;9393;42.158;24.748;2023-07-28T15:15:00;2.88;;;2.10;;
18526;SDS011;9393;42.158;24.748;2023-07-28T15:18:04;3.95;;;2.00;;
18526;SDS011;9393;42.158;24.748;2023-07-28T15:21:08;2.13;;;1.92;;
18526;SDS011;9393;42.158;24.748;2023-07-28T15:24:14;2.47;;;1.90;;
18526;SDS011;9393;42.158;24.748;2023-07-28T15:27:21;2.55;;;2.13;;
18526;SDS011;9393;42.158;24.748;2023-07-28T15:30:25;4.75;;;2.30;;
18526;SDS011;9393;42.158;24.748;2023-07-28T15:33:29;2.28;;;2.00;;
18526;SDS011;9393;42.158;24.748;2023-07-28T15:36:34;4.90;;;2.35;;
18526;SDS011;9393;42.158;24.748;2023-07-28T15:39:39;3.08;;;2.22;;
18526;SDS011;9393;42.158;24.748;2023-07-28T15:42:43;2.47;;;2.10;;
18526;SDS011;9393;42.158;24.748;2023-07-28T15:45:50;4.53;;;1.95;;
18526;SDS011;9393;42.158;24.748;2023-07-28T15:48:57;3.50;;;2.33;;
18526;SDS011;9393;42.158;24.748;2023-07-28T15:52:01;4.03;;;2.35;;
18526;SDS011;9393;42.158;24.748;2023-07-28T15:55:07;5.13;;;2.33;;
18526;SDS011;9393;42.158;24.748;2023-07-28T15:58:14;5.70;;;2.47;;
18526;SDS011;9393;42.158;24.748;2023-07-28T16:01:18;3.55;;;2.40;;
18526;SDS011;9393;42.158;24.748;2023-07-28T16:04:22;3.70;;;2.22;;
18526;SDS011;9393;42.158;24.748;2023-07-28T16:07:26;4.88;;;2.72;;
18526;SDS011;9393;42.158;24.748;2023-07-28T16:10:33;2.53;;;2.33;;
18526;SDS011;9393;42.158;24.748;2023-07-28T16:13:37;3.22;;;2.58;;
18526;SDS011;9393;42.158;24.748;2023-07-28T16:16:41;5.97;;;1.95;;
18526;SDS011;9393;42.158;24.748;2023-07-28T16:19:45;5.70;;;2.20;;
18526;SDS011;9393;42.158;24.748;2023-07-28T16:22:49;5.03;;;2.33;;
18526;SDS011;9393;42.158;24.748;2023-07-28T16:25:54;3.05;;;2.42;;
18526;SDS011;9393;42.158;24.748;2023-07-28T16:28:58;6.35;;;2.10;;
18526;SDS011;9393;42.158;24.748;2023-07-28T16:32:02;2.42;;;2.08;;
18526;SDS011;9393;42.158;24.748;2023-07-28T16:35:08;3.03;;;2.28;;
18526;SDS011;9393;42.158;24.748;2023-07-28T16:38:12;3.90;;;2.30;;
18526;SDS011;9393;42.158;24.748;2023-07-28T16:41:18;4.45;;;2.40;;
18526;SDS011;9393;42.158;24.748;2023-07-28T16:44:22;3.90;;;2.22;;
18526;SDS011;9393;42.158;24.748;2023-07-28T16:47:26;3.33;;;2.60;;
18526;SDS011;9393;42.158;24.748;2023-07-28T16:50:30;4.85;;;2.63;;
18526;SDS011;9393;42.158;24.748;2023-07-28T16:53:34;5.47;;;2.45;;
18526;SDS011;9393;42.158;24.748;2023-07-28T16:56:40;3.63;;;2.40;;
18526;SDS011;9393;42.158;24.748;2023-07-28T16:59:44;4.20;;;2.58;;
18526;SDS011;9393;42.158;24.748;2023-07-28T17:02:48;4.18;;;2.90;;
18526;SDS011;9393;42.158;24.748;2023-07-28T17:05:52;5.07;;;2.03;;
18526;SDS011;9393;42.158;24.748;2023-07-28T17:08:56;3.03;;;2.30;;
18526;SDS011;9393;42.158;24.748;2023-07-28T17:12:02;4.60;;;2.63;;
18526;SDS011;9393;42.158;24.748;2023-07-28T17:15:07;4.57;;;2.10;;
18526;SDS011;9393;42.158;24.748;2023-07-28T17:18:11;5.13;;;2.35;;
18526;SDS011;9393;42.158;24.748;2023-07-28T17:21:15;5.70;;;2.60;;
18526;SDS011;9393;42.158;24.748;2023-07-28T17:24:19;5.07;;;2.60;;
18526;SDS011;9393;42.158;24.748;2023-07-28T17:27:24;4.18;;;2.38;;
18526;SDS011;9393;42.158;24.748;2023-07-28T17:30:31;2.63;;;2.33;;
18526;SDS011;9393;42.158;24.748;2023-07-28T17:33:35;4.30;;;2.60;;
18526;SDS011;9393;42.158;24.748;2023-07-28T17:36:40;3.42;;;2.88;;
18526;SDS011;9393;42.158;24.748;2023-07-28T17:39:44;5.97;;;2.92;;
18526;SDS011;9393;42.158;24.748;2023-07-28T17:42:52;6.88;;;3.08;;
18526;SDS011;9393;42.158;24.748;2023-07-28T17:45:56;5.93;;;3.00;;
18526;SDS011;9393;42.158;24.748;2023-07-28T17:49:02;5.60;;;3.22;;
18526;SDS011;9393;42.158;24.748;2023-07-28T17:52:07;4.63;;;3.00;;
18526;SDS011;9393;42.158;24.748;2023-07-28T17:55:11;7.68;;;3.10;;
18526;SDS011;9393;42.158;24.748;2023-07-28T17:58:16;6.20;;;4.32;;
18526;SDS011;9393;42.158;24.748;2023-07-28T18:01:20;7.40;;;4.18;;
18526;SDS011;9393;42.158;24.748;2023-07-28T18:04:24;6.00;;;2.95;;
18526;SDS011;9393;42.158;24.748;2023-07-28T18:07:28;4.50;;;2.63;;
18526;SDS011;9393;42.158;24.748;2023-07-28T18:10:33;5.32;;;3.10;;
18526;SDS011;9393;42.158;24.748;2023-07-28T18:13:38;3.42;;;2.47;;
18526;SDS011;9393;42.158;24.748;2023-07-28T18:16:43;7.80;;;2.90;;
18526;SDS011;9393;42.158;24.748;2023-07-28T18:19:48;3.97;;;2.83;;
18526;SDS011;9393;42.158;24.748;2023-07-28T18:22:52;7.13;;;2.90;;
18526;SDS011;9393;42.158;24.748;2023-07-28T18:25:56;8.02;;;3.33;;
18526;SDS011;9393;42.158;24.748;2023-07-28T18:29:02;12.40;;;3.75;;
18526;SDS011;9393;42.158;24.748;2023-07-28T18:32:06;5.53;;;3.17;;
18526;SDS011;9393;42.158;24.748;2023-07-28T18:35:10;15.55;;;6.35;;